createdAt,value
2023-03-29T00:04:02.679Z,3.00
2023-03-29T00:09:06.626Z,3.25
2023-03-29T00:14:09.042Z,2.83
2023-03-29T00:19:11.083Z,2.90
2023-03-29T00:24:13.193Z,3.08
2023-03-29T00:29:15.190Z,2.38
2023-03-29T00:34:17.326Z,2.10
2023-03-29T00:39:20.990Z,3.45
2023-03-29T00:49:43.557Z,2.60
2023-03-29T00:54:46.729Z,3.00
2023-03-29T00:59:50.727Z,3.13
2023-03-29T01:04:59.635Z,3.00
2023-03-29T01:10:09.434Z,2.65
2023-03-29T01:15:15.674Z,2.53
2023-03-29T01:20:24.283Z,3.20
2023-03-29T01:25:48.407Z,3.10
2023-03-29T01:31:25.531Z,2.70
2023-03-29T01:36:52.113Z,2.80
2023-03-29T01:42:35.448Z,3.42
2023-03-29T01:48:03.012Z,2.58
2023-03-29T01:53:25.261Z,3.40
2023-03-29T01:58:34.039Z,3.20
2023-03-29T02:03:42.752Z,3.40
2023-03-29T02:08:46.110Z,2.80
2023-03-29T02:13:48.374Z,3.38
2023-03-29T02:18:53.170Z,2.38
2023-03-29T02:23:59.134Z,1.88
2023-03-29T02:29:01.485Z,2.15
2023-03-29T02:34:33.196Z,2.65
2023-03-29T02:39:37.227Z,3.08
2023-03-29T02:44:42.269Z,2.42
2023-03-29T02:49:44.538Z,2.72
2023-03-29T02:54:50.584Z,2.33
2023-03-29T02:59:57.684Z,2.47
2023-03-29T03:04:59.673Z,3.05
2023-03-29T03:10:02.012Z,2.63
2023-03-29T03:15:05.877Z,3.42
2023-03-29T03:20:15.208Z,3.15
2023-03-29T03:25:21.998Z,3.97
2023-03-29T03:30:24.201Z,3.25
2023-03-29T03:35:26.148Z,2.58
2023-03-29T03:40:28.458Z,3.05
2023-03-29T03:45:31.688Z,2.97
2023-03-29T03:50:33.779Z,4.07
2023-03-29T03:55:36.267Z,3.13
2023-03-29T04:00:38.337Z,3.53
2023-03-29T04:05:41.275Z,3.40
2023-03-29T04:10:44.290Z,4.38
2023-03-29T04:15:46.419Z,5.15
2023-03-29T04:20:49.065Z,7.82
2023-03-29T04:25:55.594Z,9.48
2023-03-29T04:30:57.587Z,9.45
2023-03-29T04:35:59.992Z,8.40
2023-03-29T04:41:05.109Z,6.45
2023-03-29T04:46:08.223Z,5.53
2023-03-29T04:51:10.360Z,5.57
2023-03-29T04:56:12.615Z,4.93
2023-03-29T05:01:14.645Z,4.65
2023-03-29T05:06:17.255Z,4.05
2023-03-29T05:11:20.068Z,4.53
2023-03-29T05:16:22.172Z,5.57
2023-03-29T05:21:26.394Z,7.18
2023-03-29T05:26:28.451Z,10.45
2023-03-29T05:31:30.475Z,4.63
2023-03-29T05:36:32.826Z,10.13
2023-03-29T05:41:34.925Z,13.60
2023-03-29T05:46:37.061Z,10.27
2023-03-29T05:51:39.112Z,11.48
2023-03-29T05:56:42.392Z,6.68
2023-03-29T06:01:47.280Z,3.00
2023-03-29T06:06:49.337Z,4.15
2023-03-29T06:11:51.551Z,2.58
2023-03-29T06:16:53.762Z,3.25
2023-03-29T06:21:55.795Z,4.40
2023-03-29T06:26:57.833Z,6.88
2023-03-29T06:32:00.530Z,3.28
2023-03-29T06:42:19.959Z,4.47
2023-03-29T06:47:29.662Z,3.78
2023-03-29T06:52:31.877Z,3.17
2023-03-29T06:57:34.303Z,2.45
2023-03-29T07:02:37.228Z,3.83
2023-03-29T07:07:55.308Z,3.72
2023-03-29T07:12:57.612Z,3.05
2023-03-29T07:17:59.926Z,2.50
2023-03-29T07:28:04.191Z,4.07
2023-03-29T07:38:08.524Z,2.85
2023-03-29T07:43:12.000Z,3.35
2023-03-29T07:48:14.405Z,2.63
2023-03-29T07:53:16.700Z,2.28
2023-03-29T07:58:19.054Z,5.38
2023-03-29T08:03:21.210Z,2.70
2023-03-29T08:13:25.139Z,4.20
2023-03-29T08:23:29.036Z,3.45
2023-03-29T08:28:30.978Z,2.50
2023-03-29T08:33:33.107Z,2.88
2023-03-29T08:43:52.375Z,1.35
2023-03-29T08:48:59.185Z,2.65
2023-03-29T08:54:35.344Z,2.10
2023-03-29T08:59:37.911Z,1.15
2023-03-29T09:04:42.843Z,1.92
2023-03-29T09:09:44.906Z,1.30
2023-03-29T09:15:05.093Z,2.53
2023-03-29T09:20:32.960Z,2.65
2023-03-29T09:26:02.436Z,3.78
2023-03-29T09:31:17.090Z,1.90
2023-03-29T09:36:26.045Z,1.73
2023-03-29T09:41:44.173Z,2.28
2023-03-29T09:47:00.930Z,2.13
2023-03-29T09:52:09.509Z,2.05
2023-03-29T09:57:17.273Z,1.65
2023-03-29T10:07:23.813Z,2.35
2023-03-29T10:12:26.432Z,2.85
2023-03-29T10:17:32.998Z,4.20
2023-03-29T10:22:38.226Z,2.28
2023-03-29T10:27:44.020Z,2.28
2023-03-29T10:32:46.551Z,2.13
2023-03-29T10:37:55.834Z,1.70
2023-03-29T10:43:22.286Z,1.35
2023-03-29T10:48:28.925Z,3.13
2023-03-29T10:53:34.492Z,2.35
2023-03-29T10:59:10.435Z,2.22
2023-03-29T11:04:16.251Z,3.85
2023-03-29T11:09:53.509Z,2.47
2023-03-29T11:15:03.489Z,1.70
2023-03-29T11:20:29.474Z,2.40
2023-03-29T11:25:37.521Z,2.42
2023-03-29T11:30:46.270Z,2.08
2023-03-29T11:36:02.638Z,1.42
2023-03-29T11:41:27.992Z,2.33
2023-03-29T11:46:47.189Z,1.70
2023-03-29T11:52:04.466Z,2.30
2023-03-29T11:57:12.775Z,2.47
2023-03-29T12:02:29.288Z,1.38
2023-03-29T12:07:37.288Z,1.80
2023-03-29T12:12:48.906Z,1.88
2023-03-29T12:18:02.923Z,1.20
2023-03-29T12:23:07.693Z,2.15
2023-03-29T12:28:18.740Z,1.40
2023-03-29T12:33:43.835Z,2.20
2023-03-29T12:38:48.356Z,3.03
2023-03-29T12:43:51.331Z,1.67
2023-03-29T12:49:11.673Z,1.90
2023-03-29T12:54:21.473Z,1.45
2023-03-29T12:59:23.538Z,1.65
2023-03-29T13:04:56.163Z,1.70
2023-03-29T13:10:01.763Z,1.10
2023-03-29T13:15:21.932Z,1.90
2023-03-29T13:20:47.028Z,1.67
2023-03-29T13:26:20.035Z,1.52
2023-03-29T13:31:31.092Z,1.48
2023-03-29T13:37:08.792Z,2.78
2023-03-29T13:42:24.516Z,1.52
2023-03-29T13:47:27.411Z,2.65
2023-03-29T13:52:34.764Z,2.17
2023-03-29T13:57:58.199Z,2.33
2023-03-29T14:03:02.902Z,2.55
2023-03-29T14:08:35.865Z,0.85
2023-03-29T14:13:38.751Z,2.13
2023-03-29T14:18:42.334Z,1.83
2023-03-29T14:23:47.268Z,1.38
2023-03-29T14:28:56.810Z,1.40
2023-03-29T14:34:04.403Z,2.28
2023-03-29T14:39:21.961Z,2.80
2023-03-29T14:44:27.803Z,2.00
2023-03-29T14:49:30.474Z,1.90
2023-03-29T14:54:34.342Z,2.33
2023-03-29T14:59:41.601Z,2.53
2023-03-29T15:04:43.650Z,4.05
2023-03-29T15:09:46.338Z,2.97
2023-03-29T15:14:51.910Z,2.05
2023-03-29T15:20:00.201Z,2.25
2023-03-29T15:25:02.616Z,1.70
2023-03-29T15:30:15.744Z,2.25
2023-03-29T15:35:25.338Z,2.70
2023-03-29T15:40:28.441Z,3.30
2023-03-29T15:45:30.606Z,3.88
2023-03-29T15:50:32.825Z,3.35
2023-03-29T15:55:35.476Z,3.45
2023-03-29T16:00:41.115Z,2.45
2023-03-29T16:05:44.482Z,3.40
2023-03-29T16:10:47.407Z,2.65
2023-03-29T16:15:49.927Z,1.65
2023-03-29T16:20:52.117Z,0.73
2023-03-29T16:25:54.177Z,5.05
2023-03-29T16:35:58.268Z,3.80
2023-03-29T16:46:02.989Z,7.38
2023-03-29T16:51:06.133Z,16.17
2023-03-29T16:56:08.521Z,8.25
2023-03-29T17:01:13.976Z,7.60
2023-03-29T17:06:16.691Z,9.02
2023-03-29T17:11:18.898Z,5.15
2023-03-29T17:16:21.476Z,4.47
2023-03-29T17:21:24.103Z,5.97
2023-03-29T17:26:26.455Z,7.30
2023-03-29T17:31:29.095Z,6.10
2023-03-29T17:36:35.028Z,7.20
2023-03-29T17:41:37.553Z,28.90
2023-03-29T17:46:40.069Z,13.52
2023-03-29T17:51:51.321Z,15.45
2023-03-29T17:56:54.308Z,19.13
2023-03-29T18:01:58.409Z,24.35
2023-03-29T18:07:02.984Z,45.22
2023-03-29T18:12:06.317Z,53.70
2023-03-29T18:17:10.584Z,40.08
2023-03-29T18:22:14.085Z,32.42
2023-03-29T18:27:17.011Z,40.55
2023-03-29T18:32:20.313Z,13.15
2023-03-29T18:37:24.723Z,19.10
2023-03-29T18:42:31.776Z,16.88
2023-03-29T18:47:36.057Z,14.77
2023-03-29T18:52:39.313Z,15.43
2023-03-29T18:57:43.800Z,14.60
2023-03-29T19:02:46.518Z,7.78
2023-03-29T19:07:50.393Z,6.63
2023-03-29T19:12:53.497Z,7.55
2023-03-29T19:17:56.647Z,7.07
2023-03-29T19:23:00.114Z,7.65
2023-03-29T19:28:05.670Z,7.07
2023-03-29T19:33:08.473Z,6.40
2023-03-29T19:38:12.795Z,5.35
2023-03-29T19:43:17.403Z,3.97
2023-03-29T19:48:23.576Z,4.20
2023-03-29T19:53:27.830Z,5.90
2023-03-29T19:58:30.659Z,4.00
2023-03-29T20:03:34.549Z,5.28
2023-03-29T20:08:39.640Z,5.63
2023-03-29T20:13:43.536Z,5.55
2023-03-29T20:18:49.979Z,5.18
2023-03-29T20:23:52.121Z,5.40
2023-03-29T20:28:54.207Z,4.22
2023-03-29T20:33:57.615Z,5.03
2023-03-29T20:39:00.649Z,3.80
2023-03-29T20:44:03.232Z,5.13
2023-03-29T20:49:09.102Z,5.45
2023-03-29T20:54:11.590Z,4.53
2023-03-29T21:04:15.443Z,4.93
2023-03-29T21:09:21.912Z,4.70
2023-03-29T21:14:23.940Z,5.25
2023-03-29T21:19:26.089Z,7.18
2023-03-29T21:24:28.116Z,5.38
2023-03-29T21:29:30.163Z,7.38
2023-03-29T21:34:32.178Z,5.28
2023-03-29T21:39:34.184Z,7.53
2023-03-29T21:44:36.300Z,7.40
2023-03-29T21:49:38.424Z,5.72
2023-03-29T21:54:40.457Z,5.72
2023-03-29T21:59:42.556Z,6.63
2023-03-29T22:04:44.675Z,5.00
2023-03-29T22:09:47.443Z,5.75
2023-03-29T22:14:49.494Z,7.47
2023-03-29T22:19:51.890Z,4.35
2023-03-29T22:24:55.036Z,7.30
2023-03-29T22:29:58.825Z,6.00
2023-03-29T22:35:00.863Z,7.53
2023-03-29T22:40:03.061Z,7.03
2023-03-29T22:45:06.680Z,5.97
2023-03-29T22:50:09.186Z,5.55
2023-03-29T22:55:11.428Z,5.68
2023-03-29T23:00:13.931Z,3.40
2023-03-29T23:05:16.276Z,6.25
2023-03-29T23:10:18.355Z,7.00
2023-03-29T23:15:23.037Z,4.75
2023-03-29T23:20:25.049Z,3.83
2023-03-29T23:25:27.847Z,4.68
2023-03-29T23:30:32.854Z,5.28
2023-03-29T23:35:34.837Z,3.45
2023-03-29T23:40:36.851Z,6.88
2023-03-29T23:45:40.020Z,3.78
2023-03-29T23:50:46.592Z,5.50
2023-03-29T23:55:48.728Z,6.07
